地図

経路データ

SID SEASON NUMBER BASIN SUBBASIN NAME ISO_TIME NATURE LAT LON WMO_WIND WMO_PRES WMO_AGENCY TRACK_TYPE DIST2LAND LANDFALL IFLAG USA_AGENCY USA_ATCF_ID USA_LAT USA_LON USA_RECORD USA_STATUS USA_WIND USA_PRES USA_SSHS USA_R34_NE USA_R34_SE USA_R34_SW USA_R34_NW USA_R50_NE USA_R50_SE USA_R50_SW USA_R50_NW USA_R64_NE USA_R64_SE USA_R64_SW USA_R64_NW USA_POCI USA_ROCI USA_RMW USA_EYE TOKYO_LAT TOKYO_LON TOKYO_GRADE TOKYO_WIND TOKYO_PRES TOKYO_R50_DIR TOKYO_R50_LONG TOKYO_R50_SHORT TOKYO_R30_DIR TOKYO_R30_LONG TOKYO_R30_SHORT TOKYO_LAND CMA_LAT CMA_LON CMA_CAT CMA_WIND CMA_PRES HKO_LAT HKO_LON HKO_CAT HKO_WIND HKO_PRES NEWDELHI_LAT NEWDELHI_LON NEWDELHI_GRADE NEWDELHI_WIND NEWDELHI_PRES NEWDELHI_CI NEWDELHI_DP NEWDELHI_POCI REUNION_LAT REUNION_LON REUNION_TYPE REUNION_WIND REUNION_PRES REUNION_TNUM REUNION_CI REUNION_RMW REUNION_R34_NE REUNION_R34_SE REUNION_R34_SW REUNION_R34_NW REUNION_R50_NE REUNION_R50_SE REUNION_R50_SW REUNION_R50_NW REUNION_R64_NE REUNION_R64_SE REUNION_R64_SW REUNION_R64_NW BOM_LAT BOM_LON BOM_TYPE BOM_WIND BOM_PRES BOM_TNUM BOM_CI BOM_RMW BOM_R34_NE BOM_R34_SE BOM_R34_SW BOM_R34_NW BOM_R50_NE BOM_R50_SE BOM_R50_SW BOM_R50_NW BOM_R64_NE BOM_R64_SE BOM_R64_SW BOM_R64_NW BOM_ROCI BOM_POCI BOM_EYE BOM_POS_METHOD BOM_PRES_METHOD NADI_LAT NADI_LON NADI_CAT NADI_WIND NADI_PRES WELLINGTON_LAT WELLINGTON_LON WELLINGTON_WIND WELLINGTON_PRES DS824_LAT DS824_LON DS824_STAGE DS824_WIND DS824_PRES TD9636_LAT TD9636_LON TD9636_STAGE TD9636_WIND TD9636_PRES TD9635_LAT TD9635_LON TD9635_WIND TD9635_PRES TD9635_ROCI NEUMANN_LAT NEUMANN_LON NEUMANN_CLASS NEUMANN_WIND NEUMANN_PRES MLC_LAT MLC_LON MLC_CLASS MLC_WIND MLC_PRES USA_GUST BOM_GUST BOM_GUST_PER REUNION_GUST REUNION_GUST_PER USA_SEAHGT USA_SEARAD_NE USA_SEARAD_SE USA_SEARAD_SW USA_SEARAD_NW STORM_SPEED STORM_DIR
2019218N21088 2019 46 NI BB NOT_NAMED 2019-08-06 03:00:00 NR 20.5000 88.0000 25 990 newdelhi main 106 106 ____O_________ -1 20.5000 88.0000 D 25 990 1.50000 3 0 0
2019218N21088 2019 46 NI BB NOT_NAMED 2019-08-06 06:00:00 NR 20.5000 88.0000 25 990 newdelhi main 106 94 ____O_________ -1 20.5000 88.0000 D 25 990 1.50000 3 1 317
2019218N21088 2019 46 NI BB NOT_NAMED 2019-08-06 09:00:00 NR 20.5864 87.9205 main 94 83 ____P_________ -1 20.5864 87.9205 D 25 990 3 3 317
2019218N21088 2019 46 NI BB NOT_NAMED 2019-08-06 12:00:00 NR 20.7000 87.8000 25 990 newdelhi main 83 72 ____O_________ -1 20.7000 87.8000 D 25 990 1.50000 3 3 309
2019218N21088 2019 46 NI BB NOT_NAMED 2019-08-06 15:00:00 NR 20.7500 87.7000 main 72 62 ____P_________ -1 20.7500 87.7000 D 25 990 3 2 299
2019218N21088 2019 46 NI BB NOT_NAMED 2019-08-06 18:00:00 NR 20.8000 87.6000 25 990 newdelhi main 62 51 ____O_________ -1 20.8000 87.6000 D 25 990 1.50000 3 3 305
2019218N21088 2019 46 NI BB NOT_NAMED 2019-08-06 21:00:00 NR 20.8932 87.4796 main 53 43 ____P_________ -1 20.8932 87.4796 D 27 989 4 3 317
2019218N21088 2019 46 NI BB NOT_NAMED 2019-08-07 00:00:00 NR 21.0000 87.4000 30 988 newdelhi main 47 47 ____O_________ -1 21.0000 87.4000 DD 30 988 2.00000 5 2 340
2019218N21088 2019 46 NI BB NOT_NAMED 2019-08-07 03:00:00 NR 21.1000 87.4000 30 988 newdelhi main 53 30 ____O_________ -1 21.1000 87.4000 DD 30 988 2.00000 5 3 317
2019218N21088 2019 46 NI BB NOT_NAMED 2019-08-07 06:00:00 NR 21.2000 87.2000 30 988 newdelhi main 30 0 ____O_________ -1 21.2000 87.2000 DD 30 988 2.00000 5 6 311
2019218N21088 2019 46 NI BB NOT_NAMED 2019-08-07 09:00:00 NR 21.5125 86.8945 main 0 0 ____P_________ -1 21.5125 86.8945 DD 30 988 5 10 317
2019218N21088 2019 46 NI BB NOT_NAMED 2019-08-07 12:00:00 NR 21.9000 86.5000 30 988 newdelhi main 0 0 ____O_________ -1 21.9000 86.5000 DD 30 988 0.00000 5 10 312
2019218N21088 2019 46 NI BB NOT_NAMED 2019-08-07 15:00:00 NR 22.1719 86.1171 main 0 0 ____P_________ -1 22.1719 86.1171 DD 30 988 5 10 301
2019218N21088 2019 46 NI BB NOT_NAMED 2019-08-07 18:00:00 NR 22.4000 85.6000 30 988 newdelhi main 0 0 ____O_________ -1 22.4000 85.6000 DD 30 988 0.00000 5 12 291
2019218N21088 2019 46 NI BB NOT_NAMED 2019-08-07 21:00:00 NR 22.6064 84.9088 main 0 0 ____P_________ -1 22.6064 84.9088 DD 27 993 4 15 285
2019218N21088 2019 46 NI BB NOT_NAMED 2019-08-08 00:00:00 NR 22.8000 84.0000 25 999 newdelhi main 0 0 ____O_________ -1 22.8000 84.0000 D 25 999 0.00000 4 19 282
2019218N21088 2019 46 NI BB NOT_NAMED 2019-08-08 03:00:00 NR 23.0000 82.9000 25 999 newdelhi main 0 0 ____O_________ -1 23.0000 82.9000 D 25 999 0.00000 4 20 287
2019218N21088 2019 46 NI BB NOT_NAMED 2019-08-08 06:00:00 NR 23.4000 81.9000 25 999 newdelhi main 0 0 ____O_________ -1 23.4000 81.9000 D 25 999 0.00000 4 19 288
2019218N21088 2019 46 NI BB NOT_NAMED 2019-08-08 09:00:00 NR 23.5753 80.9300 main 0 0 ____P_________ -1 23.5753 80.9300 D 25 999 4 16 277
2019218N21088 2019 46 NI BB NOT_NAMED 2019-08-08 12:00:00 NR 23.6000 80.2000 25 999 newdelhi main 0 0 ____O_________ -1 23.6000 80.2000 D 25 999 0.00000 4 9 272
2019218N21088 2019 46 NI BB NOT_NAMED 2019-08-08 15:00:00 NR 23.6138 79.9623 main 0 0 ____P_________ -1 23.6138 79.9623 D 25 999 3 4 270
2019218N21088 2019 46 NI BB NOT_NAMED 2019-08-08 18:00:00 NR 23.6000 79.8000 25 1000 newdelhi main 0 0 ____O_________ -1 23.6000 79.8000 D 25 1000 0.00000 3 5 264
2019218N21088 2019 46 NI BB NOT_NAMED 2019-08-08 21:00:00 NR 23.5579 79.3970 main 0 0 ____P_________ -1 23.5579 79.3970 D 25 1000 3 11 270
2019218N21088 2019 46 NI BB NOT_NAMED 2019-08-09 00:00:00 NR 23.6000 78.6000 25 1000 newdelhi main 0 0 ____O_________ -1 23.6000 78.6000 D 25 1000 0.00000 3 19 277
2019218N21088 2019 46 NI AS NOT_NAMED 2019-08-09 03:00:00 NR 23.8000 77.3000 25 1000 newdelhi main 0 0 ____O_________ -1 23.8000 77.3000 D 25 1000 0.00000 3 23 280
2019218N21088 2019 46 NI AS NOT_NAMED 2019-08-09 06:00:00 NR 24.0000 76.1000 25 1000 newdelhi main 0 ____O_________ -1 24.0000 76.1000 D 25 1000 0.00000 3 22 280

IBTrACS Databaseについて

本データベースは、米国NOAAが公開する1842年以降の世界の熱帯低気圧のベストトラックデータアーカイブInternational Best Track Archive for Climate Stewardship (IBTrACS)を、ウェブで閲覧しやすい形式に変換したものです。

最終更新日:2021-12-03